createdAt,value
2023-04-18T00:01:49.812Z,8.30
2023-04-18T00:04:51.951Z,8.29
2023-04-18T00:07:53.734Z,8.27
2023-04-18T00:10:55.412Z,8.25
2023-04-18T00:13:57.214Z,8.23
2023-04-18T00:16:58.954Z,8.22
2023-04-18T00:20:01.040Z,8.21
2023-04-18T00:23:02.697Z,8.19
2023-04-18T00:26:04.770Z,8.18
2023-04-18T00:29:06.425Z,8.17
2023-04-18T00:32:08.485Z,8.16
2023-04-18T00:35:10.179Z,8.15
2023-04-18T00:38:11.939Z,8.14
2023-04-18T00:41:13.654Z,8.13
2023-04-18T00:44:15.471Z,8.13
2023-04-18T00:47:17.304Z,8.13
2023-04-18T00:50:19.648Z,8.12
2023-04-18T00:53:21.790Z,8.12
2023-04-18T00:56:23.494Z,8.12
2023-04-18T00:59:25.199Z,8.11
2023-04-18T01:02:28.009Z,8.11
2023-04-18T01:05:30.036Z,8.09
2023-04-18T01:08:32.000Z,8.10
2023-04-18T01:11:33.782Z,8.10
2023-04-18T01:14:35.926Z,8.10
2023-04-18T01:17:37.599Z,8.10
2023-04-18T01:20:40.889Z,8.11
2023-04-18T01:23:42.891Z,8.13
2023-04-18T01:26:46.175Z,8.15
2023-04-18T01:29:47.843Z,8.17
2023-04-18T01:32:49.612Z,8.19
2023-04-18T01:35:51.283Z,8.21
2023-04-18T01:38:53.118Z,8.23
2023-04-18T01:41:54.865Z,8.25
2023-04-18T01:44:56.675Z,8.26
2023-04-18T01:47:58.367Z,8.27
2023-04-18T01:51:00.149Z,8.28
2023-04-18T01:54:02.087Z,8.29
2023-04-18T01:57:03.829Z,8.31
2023-04-18T02:00:06.597Z,8.32
2023-04-18T02:03:08.329Z,8.33
2023-04-18T02:06:10.184Z,8.35
2023-04-18T02:09:11.846Z,8.35
2023-04-18T02:12:13.453Z,8.36
2023-04-18T02:15:15.077Z,8.36
2023-04-18T02:18:16.897Z,8.36
2023-04-18T02:21:18.549Z,8.37
2023-04-18T02:24:20.183Z,8.38
2023-04-18T02:27:21.817Z,8.38
2023-04-18T02:30:25.067Z,8.38
2023-04-18T02:33:26.693Z,8.38
2023-04-18T02:36:28.362Z,8.38
2023-04-18T02:39:30.032Z,8.37
2023-04-18T02:42:31.625Z,8.36
2023-04-18T02:45:33.408Z,8.35
2023-04-18T02:48:35.299Z,8.34
2023-04-18T02:51:36.960Z,8.33
2023-04-18T02:54:38.580Z,8.32
2023-04-18T02:57:40.271Z,8.31
2023-04-18T03:00:41.880Z,8.29
2023-04-18T03:03:43.718Z,8.28
2023-04-18T03:06:45.695Z,8.26
2023-04-18T03:09:47.354Z,8.25
2023-04-18T03:12:48.985Z,8.25
2023-04-18T03:15:51.171Z,8.23
2023-04-18T03:18:52.858Z,8.22
2023-04-18T03:21:54.609Z,8.19
2023-04-18T03:24:56.256Z,8.19
2023-04-18T03:27:57.954Z,8.18
2023-04-18T03:30:59.686Z,8.16
2023-04-18T03:34:01.396Z,8.14
2023-04-18T03:37:03.201Z,8.12
2023-04-18T03:40:05.421Z,8.08
2023-04-18T03:43:07.677Z,8.06
2023-04-18T03:46:09.358Z,8.03
2023-04-18T03:49:11.103Z,8.00
2023-04-18T03:52:12.723Z,7.96
2023-04-18T03:55:14.899Z,7.93
2023-04-18T03:58:16.527Z,7.89
2023-04-18T04:01:18.191Z,7.85
2023-04-18T04:04:19.972Z,7.78
2023-04-18T04:07:21.626Z,7.59
2023-04-18T04:10:23.295Z,7.34
2023-04-18T04:13:25.122Z,7.22
2023-04-18T04:16:28.182Z,7.24
2023-04-18T04:19:29.986Z,7.30
2023-04-18T04:22:31.840Z,7.36
2023-04-18T04:25:33.475Z,7.34
2023-04-18T04:28:35.270Z,7.35
2023-04-18T04:31:36.891Z,7.39
2023-04-18T04:34:38.970Z,7.45
2023-04-18T04:37:40.741Z,7.45
2023-04-18T04:40:42.914Z,7.45
2023-04-18T04:43:47.672Z,7.49
2023-04-18T04:46:49.506Z,7.59
2023-04-18T04:49:51.163Z,7.66
2023-04-18T04:52:52.992Z,7.69
2023-04-18T04:55:54.706Z,7.71
2023-04-18T04:58:56.399Z,7.76
2023-04-18T05:01:58.042Z,7.83
2023-04-18T05:04:59.873Z,7.90
2023-04-18T05:08:02.109Z,8.00
2023-04-18T05:11:06.751Z,8.11
2023-04-18T05:14:08.731Z,8.18
2023-04-18T05:17:10.480Z,8.25
2023-04-18T05:20:13.039Z,8.35
2023-04-18T05:23:14.732Z,8.46
2023-04-18T05:26:16.474Z,8.62
2023-04-18T05:29:18.255Z,8.80
2023-04-18T05:32:20.289Z,8.96
2023-04-18T05:35:22.085Z,9.12
2023-04-18T05:38:23.882Z,9.25
2023-04-18T05:41:25.823Z,9.38
2023-04-18T05:44:27.516Z,9.43
2023-04-18T05:47:29.324Z,9.41
2023-04-18T05:50:31.039Z,9.38
2023-04-18T05:53:32.745Z,9.33
2023-04-18T05:56:34.461Z,9.27
2023-04-18T05:59:36.408Z,9.22
2023-04-18T06:02:38.161Z,9.24
2023-04-18T06:05:40.111Z,9.28
2023-04-18T06:08:41.875Z,9.35
2023-04-18T11:16:28.557Z,20.13
2023-04-18T11:19:32.278Z,20.20
2023-04-18T11:22:46.430Z,20.54
2023-04-18T11:25:49.692Z,20.63
2023-04-18T11:28:52.275Z,20.85
2023-04-18T11:31:57.533Z,21.02
2023-04-18T11:35:00.564Z,21.07
2023-04-18T11:38:02.241Z,21.10
2023-04-18T11:41:03.867Z,21.21
2023-04-18T11:44:06.192Z,20.74
2023-04-18T11:47:22.899Z,20.83
2023-04-18T11:50:25.649Z,20.66
2023-04-18T11:53:38.468Z,20.64
2023-04-18T11:56:48.345Z,20.36
2023-04-18T11:59:50.683Z,20.18
2023-04-18T12:02:52.525Z,19.91
2023-04-18T12:06:00.797Z,20.19
2023-04-18T12:09:02.704Z,20.23
2023-04-18T12:12:04.895Z,20.37
2023-04-18T12:15:14.976Z,20.44
2023-04-18T12:18:18.611Z,20.44
2023-04-18T12:21:20.334Z,20.23
2023-04-18T12:24:22.464Z,20.17
2023-04-18T12:27:24.414Z,20.18
2023-04-18T12:30:29.376Z,20.12
2023-04-18T12:33:31.264Z,19.82
2023-04-18T12:36:33.139Z,19.72
2023-04-18T12:39:34.764Z,19.56
2023-04-18T12:42:36.705Z,19.32
2023-04-18T12:45:38.462Z,19.31
2023-04-18T12:48:40.654Z,19.31
2023-04-18T12:51:42.262Z,19.28
2023-04-18T12:54:43.927Z,18.75
2023-04-18T12:57:45.669Z,18.47
2023-04-18T13:00:47.316Z,18.46
2023-04-18T13:03:59.836Z,18.43
2023-04-18T13:07:10.488Z,18.60
2023-04-18T13:10:14.545Z,18.79
2023-04-18T13:13:16.302Z,18.84
2023-04-18T13:16:18.017Z,18.86
2023-04-18T13:19:19.672Z,18.36
2023-04-18T13:22:21.661Z,18.21
2023-04-18T13:25:23.512Z,18.47
2023-04-18T13:28:25.257Z,18.36
2023-04-18T13:31:27.279Z,18.22
2023-04-18T13:34:29.266Z,18.38
2023-04-18T13:37:30.926Z,18.60
2023-04-18T13:40:32.643Z,18.72
2023-04-18T13:43:34.265Z,18.85
2023-04-18T13:46:36.033Z,18.85
2023-04-18T13:49:37.773Z,18.79
2023-04-18T13:52:39.502Z,18.52
2023-04-18T13:55:41.095Z,18.56
2023-04-18T13:58:42.742Z,18.33
2023-04-18T14:01:44.516Z,17.91
2023-04-18T14:04:46.479Z,18.00
2023-04-18T14:07:48.589Z,18.14
2023-04-18T14:10:50.207Z,18.46
2023-04-18T14:13:51.972Z,18.60
2023-04-18T14:16:53.633Z,18.52
2023-04-18T14:19:55.294Z,18.72
2023-04-18T14:22:56.949Z,18.56
2023-04-18T14:25:58.737Z,18.44
2023-04-18T14:29:00.400Z,18.63
2023-04-18T14:32:02.080Z,18.92
2023-04-18T14:35:05.386Z,19.12
2023-04-18T14:38:07.188Z,19.59
2023-04-18T14:41:09.009Z,20.25
2023-04-18T14:44:10.888Z,20.87
2023-04-18T14:47:12.504Z,21.48
2023-04-18T14:50:14.536Z,22.10
2023-04-18T14:53:16.160Z,22.32
2023-04-18T14:56:18.043Z,22.04
2023-04-18T14:59:19.883Z,21.78
2023-04-18T15:02:22.188Z,21.56
2023-04-18T15:05:24.184Z,21.26
2023-04-18T15:08:25.894Z,21.14
2023-04-18T15:11:27.665Z,20.98
2023-04-18T15:14:30.584Z,20.72
2023-04-18T15:17:33.475Z,20.92
2023-04-18T15:20:35.290Z,20.52
2023-04-18T15:23:37.267Z,19.73
2023-04-18T15:26:38.836Z,19.11
2023-04-18T15:29:40.485Z,18.59
2023-04-18T15:32:42.325Z,17.99
2023-04-18T15:35:44.068Z,17.34
2023-04-18T15:38:45.705Z,16.61
2023-04-18T15:41:47.365Z,16.00
2023-04-18T15:44:49.418Z,15.51
2023-04-18T15:47:51.254Z,15.11
2023-04-18T15:50:52.976Z,14.80
2023-04-18T15:53:54.696Z,14.58
2023-04-18T15:56:56.676Z,14.34
2023-04-18T15:59:58.291Z,14.13
2023-04-18T16:02:59.958Z,13.94
2023-04-18T16:06:01.873Z,13.76
2023-04-18T16:09:03.544Z,13.56
2023-04-18T16:12:05.388Z,13.40
2023-04-18T16:15:09.085Z,13.28
2023-04-18T16:18:10.880Z,13.21
2023-04-18T16:21:14.172Z,13.12
2023-04-18T16:24:16.179Z,12.99
2023-04-18T16:27:17.974Z,12.93
2023-04-18T16:30:19.959Z,12.88
2023-04-18T16:33:21.622Z,12.82
2023-04-18T16:36:23.355Z,12.77
2023-04-18T16:39:25.133Z,12.64
2023-04-18T16:42:26.808Z,12.50
2023-04-18T16:45:28.463Z,12.42
2023-04-18T16:48:30.343Z,12.37
2023-04-18T16:51:32.265Z,12.26
2023-04-18T16:54:33.941Z,12.15
2023-04-18T16:57:35.578Z,12.06
2023-04-18T17:00:38.524Z,11.99
2023-04-18T17:03:40.699Z,11.94
2023-04-18T17:06:42.523Z,11.90
2023-04-18T17:09:44.146Z,11.84
2023-04-18T17:12:46.884Z,11.74
2023-04-18T17:15:48.646Z,11.65
2023-04-18T17:18:50.284Z,11.49
2023-04-18T17:21:52.021Z,11.36
2023-04-18T17:24:53.696Z,11.20
2023-04-18T17:27:55.324Z,11.08
2023-04-18T17:30:56.985Z,10.96
2023-04-18T17:33:59.186Z,10.85
2023-04-18T17:37:01.008Z,10.79
2023-04-18T17:40:03.378Z,10.76
2023-04-18T17:43:05.192Z,10.68
2023-04-18T17:46:06.921Z,10.65
2023-04-18T17:49:08.657Z,10.65
2023-04-18T17:52:10.300Z,10.68
2023-04-18T17:55:12.233Z,10.68
2023-04-18T17:58:13.981Z,10.67
2023-04-18T18:01:17.226Z,10.70
2023-04-18T18:04:19.602Z,10.66
2023-04-18T18:07:21.655Z,10.64
2023-04-18T18:10:23.520Z,10.66
2023-04-18T18:13:25.360Z,10.72
2023-04-18T18:16:27.268Z,10.77
2023-04-18T18:19:29.099Z,10.90
2023-04-18T18:22:30.858Z,11.00
2023-04-18T18:25:32.512Z,11.04
2023-04-18T18:28:34.177Z,11.10
2023-04-18T18:31:36.151Z,11.11
2023-04-18T18:34:37.772Z,11.10
2023-04-18T18:37:39.553Z,11.08
2023-04-18T18:40:41.431Z,11.05
2023-04-18T18:43:43.123Z,11.03
2023-04-18T18:46:45.198Z,10.94
2023-04-18T18:49:46.912Z,10.86
2023-04-18T18:52:48.527Z,10.84
2023-04-18T18:55:50.306Z,10.85
2023-04-18T18:58:54.165Z,10.85
2023-04-18T19:01:55.984Z,10.85
2023-04-18T19:04:57.904Z,10.84
2023-04-18T19:07:59.972Z,10.82
2023-04-18T19:11:01.723Z,10.80
2023-04-18T19:14:03.490Z,10.80
2023-04-18T19:17:05.155Z,10.76
2023-04-18T19:20:08.252Z,10.76
2023-04-18T19:23:10.052Z,10.79
2023-04-18T19:26:11.836Z,10.77
2023-04-18T19:29:18.216Z,10.68
2023-04-18T19:32:19.901Z,10.64
2023-04-18T19:35:21.886Z,10.63
2023-04-18T19:38:23.879Z,10.59
2023-04-18T19:41:25.579Z,10.55
2023-04-18T19:44:28.480Z,10.52
2023-04-18T19:47:30.160Z,10.47
2023-04-18T19:50:31.925Z,10.45
2023-04-18T19:53:34.476Z,10.43
2023-04-18T19:56:38.502Z,10.40
2023-04-18T19:59:40.255Z,10.32
2023-04-18T20:02:42.347Z,10.25
2023-04-18T20:05:44.479Z,10.21
2023-04-18T20:08:46.306Z,10.18
2023-04-18T20:11:47.991Z,10.14
2023-04-18T20:14:50.320Z,10.12
2023-04-18T20:17:52.299Z,10.09
2023-04-18T20:20:54.018Z,10.04
2023-04-18T20:23:55.617Z,10.02
2023-04-18T20:26:59.419Z,10.00
2023-04-18T20:30:01.072Z,10.00
2023-04-18T20:33:03.138Z,9.98
2023-04-18T20:36:05.471Z,10.07
2023-04-18T20:39:08.822Z,10.16
2023-04-18T20:42:10.488Z,10.23
2023-04-18T20:45:12.470Z,10.28
2023-04-18T20:48:14.108Z,10.34
2023-04-18T20:51:16.432Z,10.38
2023-04-18T20:54:18.164Z,10.40
2023-04-18T20:57:19.968Z,10.42
2023-04-18T21:00:21.726Z,10.42
2023-04-18T21:03:23.632Z,10.41
2023-04-18T21:06:25.441Z,10.39
2023-04-18T21:09:27.296Z,10.37
2023-04-18T21:12:28.972Z,10.37
2023-04-18T21:15:30.797Z,10.37
2023-04-18T21:18:32.713Z,10.37
2023-04-18T21:21:34.947Z,10.36
2023-04-18T21:24:36.572Z,10.35
2023-04-18T21:27:38.229Z,10.33
2023-04-18T21:30:39.849Z,10.32
2023-04-18T21:33:41.606Z,10.29
2023-04-18T21:36:43.289Z,10.27
2023-04-18T21:39:45.234Z,10.27
2023-04-18T21:42:48.650Z,10.26
2023-04-18T21:45:51.571Z,10.24
2023-04-18T21:48:53.273Z,10.23
2023-04-18T21:51:55.069Z,10.22
2023-04-18T21:54:56.655Z,10.20
2023-04-18T21:57:58.340Z,10.18
2023-04-18T22:01:00.356Z,10.16
2023-04-18T22:04:02.200Z,10.14
2023-04-18T22:07:04.060Z,10.11
2023-04-18T22:10:06.220Z,10.08
2023-04-18T22:13:08.484Z,10.06
2023-04-18T22:16:10.693Z,10.03
2023-04-18T22:19:12.342Z,10.01
2023-04-18T22:22:14.168Z,9.98
2023-04-18T22:25:15.797Z,9.95
2023-04-18T22:28:17.751Z,9.92
2023-04-18T22:31:19.432Z,9.88
2023-04-18T22:34:21.205Z,9.83
2023-04-18T22:37:22.996Z,9.79
2023-04-18T22:40:24.792Z,9.75
2023-04-18T22:43:26.429Z,9.71
2023-04-18T22:46:28.225Z,9.68
2023-04-18T22:49:29.919Z,9.65
2023-04-18T22:52:31.585Z,9.62
2023-04-18T22:55:33.243Z,9.59
2023-04-18T22:58:34.851Z,9.56
2023-04-18T23:01:36.548Z,9.54
2023-04-18T23:04:38.536Z,9.52
2023-04-18T23:07:40.480Z,9.49
2023-04-18T23:10:42.064Z,9.48
2023-04-18T23:13:43.692Z,9.45
2023-04-18T23:16:45.350Z,9.44
2023-04-18T23:19:47.062Z,9.42
2023-04-18T23:22:48.764Z,9.41
2023-04-18T23:25:50.428Z,9.38
2023-04-18T23:28:52.850Z,9.35
2023-04-18T23:31:54.592Z,9.33
2023-04-18T23:34:56.529Z,9.31
2023-04-18T23:37:58.187Z,9.27
2023-04-18T23:40:59.938Z,9.24
2023-04-18T23:44:01.800Z,9.21
2023-04-18T23:47:03.580Z,9.16
2023-04-18T23:50:05.884Z,9.13
2023-04-18T23:53:07.552Z,9.11
2023-04-18T23:56:09.156Z,9.09
2023-04-18T23:59:10.802Z,9.08
